JP-0080 weather

Kagawa Prefectural Office Main Building Helipad
Tenjinmae, Takamatsu-shi, Kagawa Prefecture, Japan

Public forecast

Using degrees Celsius for public forecast. Weather courtesy of forecast.io.

Closest aviation weather report (METAR) to Kagawa Prefectural Office Main Building Helipad

Closest report is Takamatsu Airport, 7.7 nm (14.2 km) S. Retrieved 2019/12/12 21:20 UTC (0 seconds ago):

RJOT 122120Z 14009KT 9999 FEW020 00/M01 Q1027 RMK 1CU020 A3034

Closest aviation forecast (TAF) to Kagawa Prefectural Office Main Building Helipad

Closest forecast is Takamatsu Airport, 7.7 nm (14.2 km) S. Retrieved 2019/12/12 18:00 UTC (3 hours ago):

TAF RJOT 121709Z 1218/1400 15006KT 9999 FEW020 BECMG 1321/1400 24005KT